Taunsa Weather



Taunsa's Current Weather

Temprature 33.45o clear sky

clear sky

Rain: 0 %

Min Temprature33.45o
Max Temprature33.45o
Humidity30
Wind Speed1.87 m/h
Sun Rise05:48:24
Sun Set18:52:23
Current Time: 23-Aug-2019 05:37:07
Lat/Lon: 30.7, 70.65




Taunsa's Geo Location



Taunsa's Weather Forecast

Time Overall Temp Min Temp Max Temp Humidity Wind Speed Rain
23-Aug-2019 (Fri)
08:00:00 clear sky 35.120 35.117 35.120 27 3.8 m/h 0 %
11:00:00 clear sky 38.750 38.750 38.750 22 5.33 m/h 0 %
14:00:00 clear sky 40.730 40.730 40.731 18 2.88 m/h 0 %
17:00:00 clear sky 41.510 41.510 41.511 14 1.39 m/h 0 %
20:00:00 clear sky 39.350 39.350 39.350 19 0.6 m/h 0 %
23:00:00 clear sky 36.542 36.542 36.542 23 0.82 m/h 0 %
24-Aug-2019 (Sat)
02:00:00 clear sky 35.431 35.431 35.431 24 2.73 m/h 0 %
05:00:00 clear sky 34.055 34.055 34.055 26 2.47 m/h 0 %
08:00:00 clear sky 36.577 36.577 36.577 22 4.27 m/h 0 %
11:00:00 clear sky 39.969 39.969 39.969 18 5.27 m/h 0 %
14:00:00 clear sky 42.169 42.169 42.169 15 3.38 m/h 0 %
17:00:00 clear sky 42.623 42.623 42.623 12 2.18 m/h 0 %
20:00:00 clear sky 40.050 40.050 40.050 15 1.49 m/h 0 %
23:00:00 clear sky 38.369 38.369 38.369 19 4.8 m/h 0 %
25-Aug-2019 (Sun)
02:00:00 clear sky 36.431 36.431 36.431 21 3.73 m/h 0 %
05:00:00 clear sky 34.357 34.357 34.357 25 1.93 m/h 0 %
08:00:00 clear sky 37.214 37.214 37.214 20 0.83 m/h 0 %
11:00:00 clear sky 40.416 40.416 40.416 18 5.98 m/h 0 %
14:00:00 clear sky 42.150 42.150 42.150 15 1.86 m/h 0 %
17:00:00 clear sky 42.750 42.750 42.750 12 0.97 m/h 0 %
20:00:00 clear sky 40.381 40.381 40.381 17 0.89 m/h 0 %
23:00:00 clear sky 38.111 38.111 38.111 21 4.72 m/h 0 %
26-Aug-2019 (Mon)
02:00:00 clear sky 36.565 36.565 36.565 23 1.9 m/h 0 %
05:00:00 clear sky 35.450 35.450 35.450 24 3.19 m/h 0 %
08:00:00 clear sky 34.967 34.967 34.967 36 8.04 m/h 0 %
11:00:00 clear sky 39.272 39.272 39.272 24 8.31 m/h 0 %
14:00:00 overcast clouds 41.384 41.384 41.384 20 5.75 m/h 0 %
17:00:00 scattered clouds 41.920 41.920 41.920 18 3.69 m/h 0 %
20:00:00 clear sky 39.572 39.572 39.572 22 2.61 m/h 0 %
23:00:00 few clouds 37.614 37.614 37.614 25 2.25 m/h 0 %
27-Aug-2019 (Tue)
02:00:00 overcast clouds 35.916 35.916 35.916 29 3.96 m/h 0 %
05:00:00 overcast clouds 34.050 34.050 34.050 35 3.38 m/h 0 %
08:00:00 broken clouds 34.535 34.535 34.535 37 2.52 m/h 0 %
11:00:00 overcast clouds 38.036 38.036 38.036 29 3.73 m/h 0 %
14:00:00 overcast clouds 40.636 40.636 40.636 22 1.7 m/h 0 %
17:00:00 overcast clouds 41.465 41.465 41.465 19 2.01 m/h 0 %
20:00:00 overcast clouds 39.950 39.950 39.950 22 3.72 m/h 0 %
23:00:00 overcast clouds 37.950 37.950 37.950 28 3.18 m/h 0 %
28-Aug-2019 (Wed)
02:00:00 few clouds 35.957 35.957 35.957 32 3.34 m/h 0 %
05:00:00 clear sky 35.172 35.172 35.172 34 2.86 m/h 0 %

Famous Cities (61)